Montlucon-Domerat Airport


Codes: LFLT/MCU
Name: Montlucon-Domerat Airport
City: Montlucon/Domerat
Country: France
Elevation: 771 ft.

Photos at Montlucon-Domerat Airport


   Photos courtesy of SpottingLog. You can add your own sightings and photos by signing up for a free trial today.



No photos found.

Weather at Montlucon-Domerat Airport


Time (UTC)DescriptionTempratureWindCloud coverageVisibilityPressureHumidity
25-Jun-2024 12:00Light Rain29°C7 mph, N1%10000m1010hPa64%
25-Jun-2024 15:00Clear Sky28°C9 mph, N3%10000m1010hPa66%
25-Jun-2024 18:00Light Rain25°C7 mph, N2%10000m1010hPa79%
25-Jun-2024 21:00Light Rain19°C4 mph, NE29%10000m1011hPa91%
26-Jun-2024 00:00Few Clouds18°C2 mph, SW24%10000m1011hPa92%
26-Jun-2024 03:00Overcast Clouds17°C2 mph, SW98%10000m1010hPa93%
26-Jun-2024 06:00Overcast Clouds19°C2 mph, E100%10000m1011hPa91%
26-Jun-2024 09:00Broken Clouds24°C0 mph, S53%10000m1011hPa80%
26-Jun-2024 12:00Light Rain26°C4 mph, N30%10000m1010hPa69%
26-Jun-2024 15:00Light Rain27°C7 mph, N0%10000m1010hPa70%
26-Jun-2024 18:00Moderate Rain24°C2 mph, N36%10000m1010hPa83%
26-Jun-2024 21:00Scattered Clouds21°C4 mph, SW46%10000m1011hPa86%
27-Jun-2024 00:00Scattered Clouds19°C4 mph, SW25%10000m1012hPa90%
27-Jun-2024 03:00Clear Sky18°C7 mph, SW4%10000m1011hPa92%
27-Jun-2024 06:00Clear Sky20°C4 mph, S0%10000m1012hPa91%
27-Jun-2024 09:00Clear Sky25°C4 mph, SW0%10000m1012hPa73%
27-Jun-2024 12:00Scattered Clouds28°C0 mph, N29%10000m1012hPa57%
27-Jun-2024 15:00Light Rain25°C2 mph, NW73%10000m1012hPa77%
27-Jun-2024 18:00Moderate Rain26°C2 mph, N84%10000m1012hPa82%
27-Jun-2024 21:00Light Rain21°C4 mph, SW75%10000m1014hPa89%
28-Jun-2024 00:00Light Rain20°C4 mph, SW58%10000m1015hPa93%
28-Jun-2024 03:00Few Clouds18°C4 mph, NW15%10000m1015hPa97%
28-Jun-2024 06:00Broken Clouds19°C4 mph, N56%0m1016hPa98%
28-Jun-2024 09:00Overcast Clouds20°C4 mph, N100%10000m1017hPa96%
28-Jun-2024 12:00Light Rain22°C7 mph, NE100%10000m1017hPa88%
28-Jun-2024 15:00Light Rain26°C4 mph, NE93%10000m1015hPa75%
28-Jun-2024 18:00Broken Clouds25°C9 mph, NE76%10000m1014hPa86%
28-Jun-2024 21:00Light Rain20°C4 mph, N44%624m1013hPa99%
29-Jun-2024 00:00Broken Clouds20°C0 mph, N73%721m1012hPa99%
29-Jun-2024 03:00Overcast Clouds19°C2 mph, SE94%10000m1009hPa97%
29-Jun-2024 06:00Broken Clouds21°C4 mph, SW69%10000m1009hPa89%
29-Jun-2024 09:00Broken Clouds25°C9 mph, SW73%10000m1009hPa64%
29-Jun-2024 12:00Moderate Rain20°C9 mph, S86%10000m1008hPa91%
29-Jun-2024 15:00Moderate Rain20°C16 mph, SW95%10000m1007hPa91%
29-Jun-2024 18:00Light Rain17°C11 mph, N98%0m1010hPa98%
29-Jun-2024 21:00Light Rain15°C13 mph, W100%10000m1013hPa94%
30-Jun-2024 00:00Light Rain15°C9 mph, SW100%10000m1014hPa95%
30-Jun-2024 03:00Light Rain14°C7 mph, W100%10000m1015hPa95%
30-Jun-2024 06:00Overcast Clouds14°C7 mph, SW87%10000m1015hPa93%
30-Jun-2024 09:00Overcast Clouds16°C11 mph, SW92%10000m1015hPa81%